sensor_id;sensor_type;location;lat;lon;timestamp;P1;durP1;ratioP1;P2;durP2;ratioP2
5519;SDS011;2782;52.362;10.012;2023-04-01T00:00:59;1.10;;;0.40;;
5519;SDS011;2782;52.362;10.012;2023-04-01T00:02:02;0.98;;;0.70;;
5519;SDS011;2782;52.362;10.012;2023-04-01T00:03:03;0.60;;;0.40;;
5519;SDS011;2782;52.362;10.012;2023-04-01T00:04:04;0.85;;;0.40;;
5519;SDS011;2782;52.362;10.012;2023-04-01T00:05:06;1.02;;;0.43;;
5519;SDS011;2782;52.362;10.012;2023-04-01T00:06:08;1.58;;;0.43;;
5519;SDS011;2782;52.362;10.012;2023-04-01T00:07:12;1.15;;;0.60;;
5519;SDS011;2782;52.362;10.012;2023-04-01T00:08:14;3.00;;;0.77;;
5519;SDS011;2782;52.362;10.012;2023-04-01T00:09:16;1.13;;;0.60;;
5519;SDS011;2782;52.362;10.012;2023-04-01T00:10:17;1.63;;;0.43;;
5519;SDS011;2782;52.362;10.012;2023-04-01T00:11:19;2.47;;;0.52;;
5519;SDS011;2782;52.362;10.012;2023-04-01T00:12:20;1.98;;;0.45;;
5519;SDS011;2782;52.362;10.012;2023-04-01T00:13:22;2.15;;;0.40;;
5519;SDS011;2782;52.362;10.012;2023-04-01T00:14:25;0.98;;;0.40;;
5519;SDS011;2782;52.362;10.012;2023-04-01T00:15:27;1.63;;;0.50;;
5519;SDS011;2782;52.362;10.012;2023-04-01T00:16:27;0.70;;;0.33;;
5519;SDS011;2782;52.362;10.012;2023-04-01T00:17:29;1.13;;;0.35;;
5519;SDS011;2782;52.362;10.012;2023-04-01T00:18:30;1.00;;;0.50;;
5519;SDS011;2782;52.362;10.012;2023-04-01T00:19:31;1.15;;;0.50;;
5519;SDS011;2782;52.362;10.012;2023-04-01T00:20:32;0.70;;;0.30;;
5519;SDS011;2782;52.362;10.012;2023-04-01T00:21:34;2.63;;;0.40;;
5519;SDS011;2782;52.362;10.012;2023-04-01T00:22:36;0.75;;;0.40;;
5519;SDS011;2782;52.362;10.012;2023-04-01T00:23:39;1.45;;;0.40;;
5519;SDS011;2782;52.362;10.012;2023-04-01T00:24:40;1.02;;;0.40;;
5519;SDS011;2782;52.362;10.012;2023-04-01T00:25:42;0.60;;;0.35;;
5519;SDS011;2782;52.362;10.012;2023-04-01T00:26:45;0.93;;;0.40;;
5519;SDS011;2782;52.362;10.012;2023-04-01T00:27:47;1.83;;;0.40;;
5519;SDS011;2782;52.362;10.012;2023-04-01T00:28:49;1.10;;;0.40;;
5519;SDS011;2782;52.362;10.012;2023-04-01T00:29:50;1.67;;;0.45;;
5519;SDS011;2782;52.362;10.012;2023-04-01T00:30:51;0.87;;;0.30;;
5519;SDS011;2782;52.362;10.012;2023-04-01T00:31:53;0.90;;;0.35;;
5519;SDS011;2782;52.362;10.012;2023-04-01T00:32:54;1.70;;;0.40;;
5519;SDS011;2782;52.362;10.012;2023-04-01T00:33:55;1.08;;;0.40;;
5519;SDS011;2782;52.362;10.012;2023-04-01T00:34:56;0.97;;;0.40;;
5519;SDS011;2782;52.362;10.012;2023-04-01T00:36:05;0.77;;;0.30;;
5519;SDS011;2782;52.362;10.012;2023-04-01T00:37:08;0.80;;;0.40;;
5519;SDS011;2782;52.362;10.012;2023-04-01T00:38:10;0.90;;;0.40;;
5519;SDS011;2782;52.362;10.012;2023-04-01T00:39:12;0.63;;;0.30;;
5519;SDS011;2782;52.362;10.012;2023-04-01T00:40:21;0.60;;;0.30;;
5519;SDS011;2782;52.362;10.012;2023-04-01T00:41:25;0.75;;;0.32;;
5519;SDS011;2782;52.362;10.012;2023-04-01T00:42:28;2.03;;;0.40;;
5519;SDS011;2782;52.362;10.012;2023-04-01T00:43:28;1.17;;;0.20;;
5519;SDS011;2782;52.362;10.012;2023-04-01T00:44:31;0.70;;;0.30;;
5519;SDS011;2782;52.362;10.012;2023-04-01T00:45:35;1.10;;;0.32;;
5519;SDS011;2782;52.362;10.012;2023-04-01T00:46:39;0.75;;;0.40;;
5519;SDS011;2782;52.362;10.012;2023-04-01T00:47:40;0.90;;;0.40;;
5519;SDS011;2782;52.362;10.012;2023-04-01T00:48:42;0.70;;;0.35;;
5519;SDS011;2782;52.362;10.012;2023-04-01T00:49:48;0.80;;;0.40;;
5519;SDS011;2782;52.362;10.012;2023-04-01T00:50:53;1.38;;;0.50;;
5519;SDS011;2782;52.362;10.012;2023-04-01T00:51:57;0.60;;;0.30;;
5519;SDS011;2782;52.362;10.012;2023-04-01T00:53:02;0.70;;;0.30;;
5519;SDS011;2782;52.362;10.012;2023-04-01T00:54:04;0.98;;;0.30;;
5519;SDS011;2782;52.362;10.012;2023-04-01T00:55:08;0.88;;;0.30;;
5519;SDS011;2782;52.362;10.012;2023-04-01T00:56:11;0.85;;;0.52;;
5519;SDS011;2782;52.362;10.012;2023-04-01T00:57:16;1.70;;;0.40;;
5519;SDS011;2782;52.362;10.012;2023-04-01T00:58:20;0.82;;;0.47;;
5519;SDS011;2782;52.362;10.012;2023-04-01T00:59:25;0.55;;;0.30;;
5519;SDS011;2782;52.362;10.012;2023-04-01T01:00:28;1.00;;;0.50;;
5519;SDS011;2782;52.362;10.012;2023-04-01T01:01:31;1.95;;;0.22;;
5519;SDS011;2782;52.362;10.012;2023-04-01T01:02:33;1.70;;;0.50;;
5519;SDS011;2782;52.362;10.012;2023-04-01T01:03:36;2.15;;;0.47;;
5519;SDS011;2782;52.362;10.012;2023-04-01T01:04:36;1.27;;;0.40;;
5519;SDS011;2782;52.362;10.012;2023-04-01T01:05:45;0.70;;;0.43;;
5519;SDS011;2782;52.362;10.012;2023-04-01T01:06:58;3.15;;;0.30;;
5519;SDS011;2782;52.362;10.012;2023-04-01T01:08:10;1.10;;;0.40;;
5519;SDS011;2782;52.362;10.012;2023-04-01T01:09:22;2.28;;;0.82;;
5519;SDS011;2782;52.362;10.012;2023-04-01T01:10:32;1.10;;;0.70;;
5519;SDS011;2782;52.362;10.012;2023-04-01T01:11:35;0.55;;;0.40;;
5519;SDS011;2782;52.362;10.012;2023-04-01T01:12:45;0.88;;;0.35;;
5519;SDS011;2782;52.362;10.012;2023-04-01T01:13:52;1.58;;;0.38;;
5519;SDS011;2782;52.362;10.012;2023-04-01T01:15:06;0.50;;;0.30;;
5519;SDS011;2782;52.362;10.012;2023-04-01T01:16:12;0.70;;;0.30;;
5519;SDS011;2782;52.362;10.012;2023-04-01T01:17:20;0.50;;;0.30;;
5519;SDS011;2782;52.362;10.012;2023-04-01T01:18:33;0.60;;;0.30;;
5519;SDS011;2782;52.362;10.012;2023-04-01T01:19:44;1.45;;;0.70;;
5519;SDS011;2782;52.362;10.012;2023-04-01T01:21:02;0.70;;;0.30;;
5519;SDS011;2782;52.362;10.012;2023-04-01T01:22:31;0.88;;;0.30;;
5519;SDS011;2782;52.362;10.012;2023-04-01T01:24:07;0.85;;;0.40;;
5519;SDS011;2782;52.362;10.012;2023-04-01T01:25:30;1.08;;;0.50;;
5519;SDS011;2782;52.362;10.012;2023-04-01T01:26:49;0.50;;;0.20;;
5519;SDS011;2782;52.362;10.012;2023-04-01T01:27:57;0.77;;;0.20;;
5519;SDS011;2782;52.362;10.012;2023-04-01T01:29:09;1.20;;;0.38;;
5519;SDS011;2782;52.362;10.012;2023-04-01T01:30:35;1.08;;;0.30;;
5519;SDS011;2782;52.362;10.012;2023-04-01T01:31:44;1.33;;;0.35;;
5519;SDS011;2782;52.362;10.012;2023-04-01T01:33:12;0.65;;;0.20;;
5519;SDS011;2782;52.362;10.012;2023-04-01T01:34:32;0.50;;;0.20;;
5519;SDS011;2782;52.362;10.012;2023-04-01T01:35:41;0.50;;;0.28;;
5519;SDS011;2782;52.362;10.012;2023-04-01T01:36:47;0.60;;;0.20;;
5519;SDS011;2782;52.362;10.012;2023-04-01T01:37:54;1.05;;;0.30;;
5519;SDS011;2782;52.362;10.012;2023-04-01T01:38:57;0.90;;;0.38;;
5519;SDS011;2782;52.362;10.012;2023-04-01T01:39:59;0.50;;;0.20;;
5519;SDS011;2782;52.362;10.012;2023-04-01T01:41:05;0.82;;;0.30;;
5519;SDS011;2782;52.362;10.012;2023-04-01T01:42:09;0.50;;;0.20;;
5519;SDS011;2782;52.362;10.012;2023-04-01T01:43:15;0.50;;;0.20;;
5519;SDS011;2782;52.362;10.012;2023-04-01T01:44:20;0.50;;;0.20;;
5519;SDS011;2782;52.362;10.012;2023-04-01T01:45:24;0.80;;;0.38;;
5519;SDS011;2782;52.362;10.012;2023-04-01T01:46:28;0.50;;;0.20;;
5519;SDS011;2782;52.362;10.012;2023-04-01T01:47:30;1.10;;;0.30;;
5519;SDS011;2782;52.362;10.012;2023-04-01T01:48:34;0.50;;;0.20;;
5519;SDS011;2782;52.362;10.012;2023-04-01T01:49:37;0.50;;;0.30;;
5519;SDS011;2782;52.362;10.012;2023-04-01T01:50:41;0.50;;;0.30;;
5519;SDS011;2782;52.362;10.012;2023-04-01T01:51:45;0.63;;;0.20;;
5519;SDS011;2782;52.362;10.012;2023-04-01T01:52:48;0.50;;;0.20;;
5519;SDS011;2782;52.362;10.012;2023-04-01T01:53:49;0.50;;;0.30;;
5519;SDS011;2782;52.362;10.012;2023-04-01T01:54:50;0.80;;;0.30;;
5519;SDS011;2782;52.362;10.012;2023-04-01T01:55:53;0.85;;;0.20;;
5519;SDS011;2782;52.362;10.012;2023-04-01T01:56:55;0.90;;;0.20;;
5519;SDS011;2782;52.362;10.012;2023-04-01T01:58:05;0.50;;;0.20;;
5519;SDS011;2782;52.362;10.012;2023-04-01T01:59:09;0.60;;;0.30;;
5519;SDS011;2782;52.362;10.012;2023-04-01T02:00:13;0.65;;;0.30;;
5519;SDS011;2782;52.362;10.012;2023-04-01T02:01:15;0.75;;;0.40;;
5519;SDS011;2782;52.362;10.012;2023-04-01T02:02:20;0.70;;;0.28;;
5519;SDS011;2782;52.362;10.012;2023-04-01T02:03:23;0.60;;;0.40;;
5519;SDS011;2782;52.362;10.012;2023-04-01T02:04:26;1.17;;;0.50;;
5519;SDS011;2782;52.362;10.012;2023-04-01T02:05:28;1.00;;;0.30;;
5519;SDS011;2782;52.362;10.012;2023-04-01T02:06:33;0.68;;;0.32;;
5519;SDS011;2782;52.362;10.012;2023-04-01T02:07:36;1.65;;;0.20;;
5519;SDS011;2782;52.362;10.012;2023-04-01T02:08:41;1.48;;;0.40;;
5519;SDS011;2782;52.362;10.012;2023-04-01T02:09:45;1.70;;;0.38;;
5519;SDS011;2782;52.362;10.012;2023-04-01T02:10:48;1.20;;;0.30;;
5519;SDS011;2782;52.362;10.012;2023-04-01T02:11:56;0.95;;;0.50;;
5519;SDS011;2782;52.362;10.012;2023-04-01T02:13:01;0.60;;;0.40;;
5519;SDS011;2782;52.362;10.012;2023-04-01T02:14:09;0.60;;;0.38;;
5519;SDS011;2782;52.362;10.012;2023-04-01T02:15:14;0.77;;;0.28;;
5519;SDS011;2782;52.362;10.012;2023-04-01T02:16:19;0.45;;;0.20;;
5519;SDS011;2782;52.362;10.012;2023-04-01T02:17:24;0.63;;;0.30;;
5519;SDS011;2782;52.362;10.012;2023-04-01T02:18:28;1.00;;;0.30;;
5519;SDS011;2782;52.362;10.012;2023-04-01T02:19:31;0.85;;;0.35;;
5519;SDS011;2782;52.362;10.012;2023-04-01T02:20:36;0.50;;;0.20;;
5519;SDS011;2782;52.362;10.012;2023-04-01T02:21:40;0.63;;;0.30;;
5519;SDS011;2782;52.362;10.012;2023-04-01T02:22:44;0.50;;;0.22;;
5519;SDS011;2782;52.362;10.012;2023-04-01T02:23:49;0.50;;;0.20;;
5519;SDS011;2782;52.362;10.012;2023-04-01T02:24:54;1.00;;;0.30;;
5519;SDS011;2782;52.362;10.012;2023-04-01T02:25:58;0.60;;;0.30;;
5519;SDS011;2782;52.362;10.012;2023-04-01T02:27:00;0.75;;;0.30;;
5519;SDS011;2782;52.362;10.012;2023-04-01T02:28:01;0.90;;;0.20;;
5519;SDS011;2782;52.362;10.012;2023-04-01T02:29:04;0.52;;;0.20;;
5519;SDS011;2782;52.362;10.012;2023-04-01T02:30:07;0.98;;;0.30;;
5519;SDS011;2782;52.362;10.012;2023-04-01T02:31:10;0.60;;;0.30;;
5519;SDS011;2782;52.362;10.012;2023-04-01T02:32:12;0.50;;;0.30;;
5519;SDS011;2782;52.362;10.012;2023-04-01T02:33:15;0.50;;;0.30;;
5519;SDS011;2782;52.362;10.012;2023-04-01T02:34:17;0.50;;;0.30;;
5519;SDS011;2782;52.362;10.012;2023-04-01T02:35:19;0.60;;;0.20;;
5519;SDS011;2782;52.362;10.012;2023-04-01T02:36:20;0.50;;;0.20;;
5519;SDS011;2782;52.362;10.012;2023-04-01T02:37:23;0.50;;;0.20;;
5519;SDS011;2782;52.362;10.012;2023-04-01T02:38:24;0.50;;;0.25;;
5519;SDS011;2782;52.362;10.012;2023-04-01T02:39:25;0.65;;;0.25;;
5519;SDS011;2782;52.362;10.012;2023-04-01T02:40:27;0.60;;;0.28;;
5519;SDS011;2782;52.362;10.012;2023-04-01T02:41:28;0.65;;;0.30;;
5519;SDS011;2782;52.362;10.012;2023-04-01T02:42:29;0.60;;;0.20;;
5519;SDS011;2782;52.362;10.012;2023-04-01T02:43:31;0.50;;;0.20;;
5519;SDS011;2782;52.362;10.012;2023-04-01T02:44:32;0.65;;;0.32;;
5519;SDS011;2782;52.362;10.012;2023-04-01T02:45:33;1.02;;;0.40;;
5519;SDS011;2782;52.362;10.012;2023-04-01T02:46:34;0.83;;;0.30;;
5519;SDS011;2782;52.362;10.012;2023-04-01T02:47:36;0.50;;;0.20;;
5519;SDS011;2782;52.362;10.012;2023-04-01T02:48:37;0.60;;;0.20;;
5519;SDS011;2782;52.362;10.012;2023-04-01T02:49:38;0.50;;;0.20;;
5519;SDS011;2782;52.362;10.012;2023-04-01T02:50:39;1.73;;;0.20;;
5519;SDS011;2782;52.362;10.012;2023-04-01T02:51:40;0.50;;;0.20;;
5519;SDS011;2782;52.362;10.012;2023-04-01T02:52:42;0.60;;;0.20;;
5519;SDS011;2782;52.362;10.012;2023-04-01T02:53:44;0.50;;;0.20;;
5519;SDS011;2782;52.362;10.012;2023-04-01T02:54:45;0.60;;;0.30;;
5519;SDS011;2782;52.362;10.012;2023-04-01T02:55:46;0.60;;;0.20;;
5519;SDS011;2782;52.362;10.012;2023-04-01T02:56:50;0.80;;;0.25;;
5519;SDS011;2782;52.362;10.012;2023-04-01T02:57:51;0.50;;;0.30;;
5519;SDS011;2782;52.362;10.012;2023-04-01T02:58:52;0.50;;;0.20;;
5519;SDS011;2782;52.362;10.012;2023-04-01T02:59:54;0.80;;;0.30;;
5519;SDS011;2782;52.362;10.012;2023-04-01T03:00:55;0.70;;;0.20;;
5519;SDS011;2782;52.362;10.012;2023-04-01T03:01:57;0.50;;;0.20;;
5519;SDS011;2782;52.362;10.012;2023-04-01T03:02:57;0.50;;;0.20;;
5519;SDS011;2782;52.362;10.012;2023-04-01T03:03:59;0.60;;;0.20;;
5519;SDS011;2782;52.362;10.012;2023-04-01T03:05:00;0.80;;;0.27;;
5519;SDS011;2782;52.362;10.012;2023-04-01T03:06:04;0.60;;;0.20;;
5519;SDS011;2782;52.362;10.012;2023-04-01T03:07:05;0.50;;;0.20;;
5519;SDS011;2782;52.362;10.012;2023-04-01T03:08:09;0.50;;;0.20;;
5519;SDS011;2782;52.362;10.012;2023-04-01T03:09:11;0.60;;;0.28;;
5519;SDS011;2782;52.362;10.012;2023-04-01T03:10:14;0.50;;;0.20;;
5519;SDS011;2782;52.362;10.012;2023-04-01T03:11:15;0.80;;;0.30;;
5519;SDS011;2782;52.362;10.012;2023-04-01T03:12:16;0.50;;;0.20;;
5519;SDS011;2782;52.362;10.012;2023-04-01T03:13:17;0.60;;;0.20;;
5519;SDS011;2782;52.362;10.012;2023-04-01T03:14:18;0.50;;;0.20;;
5519;SDS011;2782;52.362;10.012;2023-04-01T03:15:19;0.50;;;0.20;;
5519;SDS011;2782;52.362;10.012;2023-04-01T03:16:21;0.50;;;0.20;;
5519;SDS011;2782;52.362;10.012;2023-04-01T03:17:22;0.60;;;0.20;;
5519;SDS011;2782;52.362;10.012;2023-04-01T03:18:23;0.60;;;0.20;;
5519;SDS011;2782;52.362;10.012;2023-04-01T03:19:24;0.50;;;0.30;;
5519;SDS011;2782;52.362;10.012;2023-04-01T03:20:25;0.47;;;0.22;;
5519;SDS011;2782;52.362;10.012;2023-04-01T03:21:26;0.47;;;0.20;;
5519;SDS011;2782;52.362;10.012;2023-04-01T03:22:28;0.70;;;0.30;;
5519;SDS011;2782;52.362;10.012;2023-04-01T03:23:30;1.53;;;0.30;;
5519;SDS011;2782;52.362;10.012;2023-04-01T03:24:31;0.80;;;0.30;;
5519;SDS011;2782;52.362;10.012;2023-04-01T03:25:32;0.60;;;0.20;;
5519;SDS011;2782;52.362;10.012;2023-04-01T03:26:33;0.50;;;0.20;;
5519;SDS011;2782;52.362;10.012;2023-04-01T03:27:34;0.60;;;0.20;;
5519;SDS011;2782;52.362;10.012;2023-04-01T03:28:36;0.50;;;0.20;;
5519;SDS011;2782;52.362;10.012;2023-04-01T03:29:37;0.50;;;0.22;;
5519;SDS011;2782;52.362;10.012;2023-04-01T03:30:38;0.40;;;0.20;;
5519;SDS011;2782;52.362;10.012;2023-04-01T03:31:40;0.60;;;0.30;;
5519;SDS011;2782;52.362;10.012;2023-04-01T03:32:41;0.50;;;0.20;;
5519;SDS011;2782;52.362;10.012;2023-04-01T03:33:42;0.50;;;0.20;;
5519;SDS011;2782;52.362;10.012;2023-04-01T03:34:44;0.55;;;0.30;;
5519;SDS011;2782;52.362;10.012;2023-04-01T03:35:45;0.73;;;0.30;;
5519;SDS011;2782;52.362;10.012;2023-04-01T03:36:46;0.75;;;0.20;;
5519;SDS011;2782;52.362;10.012;2023-04-01T03:37:48;1.23;;;0.30;;
5519;SDS011;2782;52.362;10.012;2023-04-01T03:38:51;0.82;;;0.20;;
5519;SDS011;2782;52.362;10.012;2023-04-01T03:39:53;0.50;;;0.20;;
5519;SDS011;2782;52.362;10.012;2023-04-01T03:40:54;0.50;;;0.20;;
5519;SDS011;2782;52.362;10.012;2023-04-01T03:41:55;0.60;;;0.20;;
5519;SDS011;2782;52.362;10.012;2023-04-01T03:42:56;0.60;;;0.20;;
5519;SDS011;2782;52.362;10.012;2023-04-01T03:43:57;0.50;;;0.20;;
5519;SDS011;2782;52.362;10.012;2023-04-01T03:44:58;0.60;;;0.30;;
5519;SDS011;2782;52.362;10.012;2023-04-01T03:45:59;1.07;;;0.20;;
5519;SDS011;2782;52.362;10.012;2023-04-01T03:47:01;0.50;;;0.20;;
5519;SDS011;2782;52.362;10.012;2023-04-01T03:48:01;0.60;;;0.20;;
5519;SDS011;2782;52.362;10.012;2023-04-01T03:49:05;0.50;;;0.20;;
5519;SDS011;2782;52.362;10.012;2023-04-01T03:50:11;0.50;;;0.20;;
5519;SDS011;2782;52.362;10.012;2023-04-01T03:51:12;0.50;;;0.20;;
5519;SDS011;2782;52.362;10.012;2023-04-01T03:52:13;0.50;;;0.20;;
5519;SDS011;2782;52.362;10.012;2023-04-01T03:53:15;0.50;;;0.20;;
5519;SDS011;2782;52.362;10.012;2023-04-01T03:54:17;0.50;;;0.20;;
5519;SDS011;2782;52.362;10.012;2023-04-01T03:55:20;0.60;;;0.20;;
5519;SDS011;2782;52.362;10.012;2023-04-01T03:56:20;0.50;;;0.20;;
5519;SDS011;2782;52.362;10.012;2023-04-01T03:57:22;0.80;;;0.20;;
5519;SDS011;2782;52.362;10.012;2023-04-01T03:58:23;0.60;;;0.20;;
5519;SDS011;2782;52.362;10.012;2023-04-01T03:59:25;0.50;;;0.20;;
5519;SDS011;2782;52.362;10.012;2023-04-01T04:00:26;0.50;;;0.20;;
5519;SDS011;2782;52.362;10.012;2023-04-01T04:01:27;0.70;;;0.20;;
5519;SDS011;2782;52.362;10.012;2023-04-01T04:02:28;0.80;;;0.20;;
5519;SDS011;2782;52.362;10.012;2023-04-01T04:03:29;0.65;;;0.20;;
5519;SDS011;2782;52.362;10.012;2023-04-01T04:04:30;0.40;;;0.20;;
5519;SDS011;2782;52.362;10.012;2023-04-01T04:05:32;0.50;;;0.25;;
5519;SDS011;2782;52.362;10.012;2023-04-01T04:06:32;0.43;;;0.20;;
5519;SDS011;2782;52.362;10.012;2023-04-01T04:07:34;0.85;;;0.20;;
5519;SDS011;2782;52.362;10.012;2023-04-01T04:08:36;0.40;;;0.20;;
5519;SDS011;2782;52.362;10.012;2023-04-01T04:09:38;0.50;;;0.20;;
5519;SDS011;2782;52.362;10.012;2023-04-01T04:10:40;0.57;;;0.20;;
5519;SDS011;2782;52.362;10.012;2023-04-01T04:11:41;0.60;;;0.20;;
5519;SDS011;2782;52.362;10.012;2023-04-01T04:12:42;0.50;;;0.20;;
5519;SDS011;2782;52.362;10.012;2023-04-01T04:13:43;0.50;;;0.30;;
5519;SDS011;2782;52.362;10.012;2023-04-01T04:14:45;0.50;;;0.20;;
5519;SDS011;2782;52.362;10.012;2023-04-01T04:15:45;0.70;;;0.20;;
5519;SDS011;2782;52.362;10.012;2023-04-01T04:16:47;0.50;;;0.20;;
5519;SDS011;2782;52.362;10.012;2023-04-01T04:17:48;0.83;;;0.20;;
5519;SDS011;2782;52.362;10.012;2023-04-01T04:18:50;0.50;;;0.20;;
5519;SDS011;2782;52.362;10.012;2023-04-01T04:19:51;0.50;;;0.20;;
5519;SDS011;2782;52.362;10.012;2023-04-01T04:20:52;0.60;;;0.20;;
5519;SDS011;2782;52.362;10.012;2023-04-01T04:21:53;0.50;;;0.20;;
5519;SDS011;2782;52.362;10.012;2023-04-01T04:22:54;0.50;;;0.20;;
5519;SDS011;2782;52.362;10.012;2023-04-01T04:23:55;1.33;;;0.50;;
5519;SDS011;2782;52.362;10.012;2023-04-01T04:24:58;0.50;;;0.20;;
5519;SDS011;2782;52.362;10.012;2023-04-01T04:25:59;0.88;;;0.20;;
5519;SDS011;2782;52.362;10.012;2023-04-01T04:27:03;0.70;;;0.20;;
5519;SDS011;2782;52.362;10.012;2023-04-01T04:28:04;0.50;;;0.20;;
5519;SDS011;2782;52.362;10.012;2023-04-01T04:29:06;0.60;;;0.20;;
5519;SDS011;2782;52.362;10.012;2023-04-01T04:30:07;0.77;;;0.20;;
5519;SDS011;2782;52.362;10.012;2023-04-01T04:31:09;0.40;;;0.20;;
5519;SDS011;2782;52.362;10.012;2023-04-01T04:32:10;0.50;;;0.20;;
5519;SDS011;2782;52.362;10.012;2023-04-01T04:33:11;0.60;;;0.20;;
5519;SDS011;2782;52.362;10.012;2023-04-01T04:34:12;0.87;;;0.20;;
5519;SDS011;2782;52.362;10.012;2023-04-01T04:35:14;0.63;;;0.20;;
5519;SDS011;2782;52.362;10.012;2023-04-01T04:36:15;0.50;;;0.20;;
5519;SDS011;2782;52.362;10.012;2023-04-01T04:37:16;0.60;;;0.20;;
5519;SDS011;2782;52.362;10.012;2023-04-01T04:38:18;0.50;;;0.20;;
5519;SDS011;2782;52.362;10.012;2023-04-01T04:39:19;0.47;;;0.20;;
5519;SDS011;2782;52.362;10.012;2023-04-01T04:40:22;0.63;;;0.20;;
5519;SDS011;2782;52.362;10.012;2023-04-01T04:41:22;0.45;;;0.20;;
5519;SDS011;2782;52.362;10.012;2023-04-01T04:42:24;0.50;;;0.20;;
5519;SDS011;2782;52.362;10.012;2023-04-01T04:43:24;0.50;;;0.20;;
5519;SDS011;2782;52.362;10.012;2023-04-01T04:44:26;0.60;;;0.30;;
5519;SDS011;2782;52.362;10.012;2023-04-01T04:45:27;0.70;;;0.30;;
5519;SDS011;2782;52.362;10.012;2023-04-01T04:46:28;0.50;;;0.32;;
5519;SDS011;2782;52.362;10.012;2023-04-01T04:47:29;0.50;;;0.20;;
5519;SDS011;2782;52.362;10.012;2023-04-01T04:48:31;0.50;;;0.28;;
5519;SDS011;2782;52.362;10.012;2023-04-01T04:49:31;0.50;;;0.20;;
5519;SDS011;2782;52.362;10.012;2023-04-01T04:50:33;0.43;;;0.20;;
5519;SDS011;2782;52.362;10.012;2023-04-01T04:51:34;0.50;;;0.20;;
5519;SDS011;2782;52.362;10.012;2023-04-01T04:52:35;0.50;;;0.20;;
5519;SDS011;2782;52.362;10.012;2023-04-01T04:53:36;0.60;;;0.20;;
5519;SDS011;2782;52.362;10.012;2023-04-01T04:54:38;0.80;;;0.30;;
5519;SDS011;2782;52.362;10.012;2023-04-01T04:55:43;0.50;;;0.20;;
5519;SDS011;2782;52.362;10.012;2023-04-01T04:56:45;0.50;;;0.20;;
5519;SDS011;2782;52.362;10.012;2023-04-01T04:57:45;0.50;;;0.20;;
5519;SDS011;2782;52.362;10.012;2023-04-01T04:58:47;0.40;;;0.20;;
5519;SDS011;2782;52.362;10.012;2023-04-01T04:59:48;0.50;;;0.20;;
5519;SDS011;2782;52.362;10.012;2023-04-01T05:00:50;0.50;;;0.20;;
5519;SDS011;2782;52.362;10.012;2023-04-01T05:01:50;0.50;;;0.30;;
5519;SDS011;2782;52.362;10.012;2023-04-01T05:02:52;0.57;;;0.20;;
5519;SDS011;2782;52.362;10.012;2023-04-01T05:03:53;0.50;;;0.20;;
5519;SDS011;2782;52.362;10.012;2023-04-01T05:04:54;0.73;;;0.25;;
5519;SDS011;2782;52.362;10.012;2023-04-01T05:05:55;0.50;;;0.20;;
5519;SDS011;2782;52.362;10.012;2023-04-01T05:06:56;0.50;;;0.20;;
5519;SDS011;2782;52.362;10.012;2023-04-01T05:07:57;0.63;;;0.27;;
5519;SDS011;2782;52.362;10.012;2023-04-01T05:08:59;0.47;;;0.20;;
5519;SDS011;2782;52.362;10.012;2023-04-01T05:10:00;0.50;;;0.20;;
5519;SDS011;2782;52.362;10.012;2023-04-01T05:11:02;0.50;;;0.20;;
5519;SDS011;2782;52.362;10.012;2023-04-01T05:12:03;0.47;;;0.20;;
5519;SDS011;2782;52.362;10.012;2023-04-01T05:13:05;0.50;;;0.20;;
5519;SDS011;2782;52.362;10.012;2023-04-01T05:14:11;0.50;;;0.20;;
5519;SDS011;2782;52.362;10.012;2023-04-01T05:15:14;0.40;;;0.20;;
5519;SDS011;2782;52.362;10.012;2023-04-01T05:16:15;0.43;;;0.20;;
5519;SDS011;2782;52.362;10.012;2023-04-01T05:17:18;0.60;;;0.20;;
5519;SDS011;2782;52.362;10.012;2023-04-01T05:18:19;0.40;;;0.10;;
5519;SDS011;2782;52.362;10.012;2023-04-01T05:19:22;0.40;;;0.20;;
5519;SDS011;2782;52.362;10.012;2023-04-01T05:20:23;0.53;;;0.20;;
5519;SDS011;2782;52.362;10.012;2023-04-01T05:21:24;0.50;;;0.20;;
5519;SDS011;2782;52.362;10.012;2023-04-01T05:22:25;0.40;;;0.20;;
5519;SDS011;2782;52.362;10.012;2023-04-01T05:23:27;0.50;;;0.20;;
5519;SDS011;2782;52.362;10.012;2023-04-01T05:24:28;0.50;;;0.20;;
5519;SDS011;2782;52.362;10.012;2023-04-01T05:25:29;0.50;;;0.20;;
5519;SDS011;2782;52.362;10.012;2023-04-01T05:26:32;1.00;;;0.32;;
5519;SDS011;2782;52.362;10.012;2023-04-01T05:27:33;0.50;;;0.20;;
5519;SDS011;2782;52.362;10.012;2023-04-01T05:28:35;0.73;;;0.20;;
5519;SDS011;2782;52.362;10.012;2023-04-01T05:29:37;0.50;;;0.20;;
5519;SDS011;2782;52.362;10.012;2023-04-01T05:30:39;0.80;;;0.20;;
5519;SDS011;2782;52.362;10.012;2023-04-01T05:31:40;0.47;;;0.20;;
5519;SDS011;2782;52.362;10.012;2023-04-01T05:32:42;0.40;;;0.20;;
5519;SDS011;2782;52.362;10.012;2023-04-01T05:33:43;0.60;;;0.20;;
5519;SDS011;2782;52.362;10.012;2023-04-01T05:34:45;0.70;;;0.20;;
5519;SDS011;2782;52.362;10.012;2023-04-01T05:35:45;0.50;;;0.20;;
5519;SDS011;2782;52.362;10.012;2023-04-01T05:36:47;0.60;;;0.20;;
5519;SDS011;2782;52.362;10.012;2023-04-01T05:37:47;0.40;;;0.10;;
5519;SDS011;2782;52.362;10.012;2023-04-01T05:38:49;0.40;;;0.20;;
5519;SDS011;2782;52.362;10.012;2023-04-01T05:39:50;0.50;;;0.20;;
5519;SDS011;2782;52.362;10.012;2023-04-01T05:40:57;0.50;;;0.20;;
5519;SDS011;2782;52.362;10.012;2023-04-01T05:42:00;0.50;;;0.20;;
5519;SDS011;2782;52.362;10.012;2023-04-01T05:43:02;0.50;;;0.20;;
5519;SDS011;2782;52.362;10.012;2023-04-01T05:44:02;2.08;;;0.20;;
5519;SDS011;2782;52.362;10.012;2023-04-01T05:45:05;1.33;;;0.30;;
5519;SDS011;2782;52.362;10.012;2023-04-01T05:46:07;0.45;;;0.20;;
5519;SDS011;2782;52.362;10.012;2023-04-01T05:47:09;0.45;;;0.20;;
5519;SDS011;2782;52.362;10.012;2023-04-01T05:48:09;1.10;;;0.23;;
5519;SDS011;2782;52.362;10.012;2023-04-01T05:49:11;1.05;;;0.20;;
5519;SDS011;2782;52.362;10.012;2023-04-01T05:50:12;1.40;;;0.20;;
5519;SDS011;2782;52.362;10.012;2023-04-01T05:51:14;1.15;;;0.30;;
5519;SDS011;2782;52.362;10.012;2023-04-01T05:52:16;0.50;;;0.20;;
5519;SDS011;2782;52.362;10.012;2023-04-01T05:53:17;0.50;;;0.20;;
5519;SDS011;2782;52.362;10.012;2023-04-01T05:54:18;0.67;;;0.20;;
5519;SDS011;2782;52.362;10.012;2023-04-01T05:55:20;0.60;;;0.22;;
5519;SDS011;2782;52.362;10.012;2023-04-01T05:56:21;0.70;;;0.20;;
5519;SDS011;2782;52.362;10.012;2023-04-01T05:57:23;0.50;;;0.30;;
5519;SDS011;2782;52.362;10.012;2023-04-01T05:58:24;2.78;;;0.20;;
5519;SDS011;2782;52.362;10.012;2023-04-01T05:59:26;0.50;;;0.20;;
5519;SDS011;2782;52.362;10.012;2023-04-01T06:00:26;0.60;;;0.20;;
5519;SDS011;2782;52.362;10.012;2023-04-01T06:01:28;0.50;;;0.22;;
5519;SDS011;2782;52.362;10.012;2023-04-01T06:02:29;0.50;;;0.20;;
5519;SDS011;2782;52.362;10.012;2023-04-01T06:03:30;1.40;;;0.20;;
5519;SDS011;2782;52.362;10.012;2023-04-01T06:04:32;0.60;;;0.40;;
5519;SDS011;2782;52.362;10.012;2023-04-01T06:05:39;0.50;;;0.20;;
5519;SDS011;2782;52.362;10.012;2023-04-01T06:06:41;0.98;;;0.20;;
5519;SDS011;2782;52.362;10.012;2023-04-01T06:07:42;1.00;;;0.40;;
5519;SDS011;2782;52.362;10.012;2023-04-01T06:08:43;0.63;;;0.20;;
5519;SDS011;2782;52.362;10.012;2023-04-01T06:09:45;0.50;;;0.20;;
5519;SDS011;2782;52.362;10.012;2023-04-01T06:10:51;0.40;;;0.20;;
5519;SDS011;2782;52.362;10.012;2023-04-01T06:12:06;0.40;;;0.20;;
5519;SDS011;2782;52.362;10.012;2023-04-01T06:13:22;0.52;;;0.20;;
5519;SDS011;2782;52.362;10.012;2023-04-01T06:14:32;2.05;;;0.20;;
5519;SDS011;2782;52.362;10.012;2023-04-01T06:15:40;0.60;;;0.20;;
5519;SDS011;2782;52.362;10.012;2023-04-01T06:16:53;0.50;;;0.20;;
5519;SDS011;2782;52.362;10.012;2023-04-01T06:18:15;0.55;;;0.20;;
5519;SDS011;2782;52.362;10.012;2023-04-01T06:19:36;0.50;;;0.20;;
5519;SDS011;2782;52.362;10.012;2023-04-01T06:20:46;0.70;;;0.20;;
5519;SDS011;2782;52.362;10.012;2023-04-01T06:23:42;0.52;;;0.25;;
5519;SDS011;2782;52.362;10.012;2023-04-01T06:24:59;0.50;;;0.20;;
5519;SDS011;2782;52.362;10.012;2023-04-01T06:26:17;0.60;;;0.30;;
5519;SDS011;2782;52.362;10.012;2023-04-01T06:27:36;0.57;;;0.20;;
5519;SDS011;2782;52.362;10.012;2023-04-01T06:30:30;0.50;;;0.20;;
5519;SDS011;2782;52.362;10.012;2023-04-01T06:31:51;0.52;;;0.32;;